GLO1746 SBBR-SBGO
Flight info
| Callsign | GLO1746 |
|---|---|
| Flight time | 0h 21m |
| Altitude | 16000 |
| Route | SIREM |
| Aircraft | B738/M-SDFGIKLORWXY/LB1 |
Departure
| Time | 2026-04-23 02:33 |
|---|---|
| Airport | Presidente Juscelino Kubitschek International Airport (SBBR) |
Arrival
| Time | 2026-04-23 02:55 |
|---|---|
| Airport | Santa Genoveva International Airport (SBGO) |
| Time | Latitude | Longitude | Altitude | Speed | Heading |
|---|---|---|---|---|---|
| 2026-04-23 02:16 | -15.86709 | -47.91936 | 3484 ft | 0 kts | 176° |
| 2026-04-23 02:23 | -15.86698 | -47.91936 | 3484 ft | 2 kts | 176° |
| 2026-04-23 02:23 | -15.86684 | -47.91937 | 3484 ft | 2 kts | 176° |
| 2026-04-23 02:23 | -15.86670 | -47.91938 | 3483 ft | 2 kts | 169° |
| 2026-04-23 02:23 | -15.86656 | -47.91943 | 3483 ft | 2 kts | 154° |
| 2026-04-23 02:24 | -15.86643 | -47.91951 | 3483 ft | 2 kts | 140° |
| 2026-04-23 02:24 | -15.86632 | -47.91962 | 3483 ft | 2 kts | 126° |
| 2026-04-23 02:24 | -15.86625 | -47.91976 | 3483 ft | 2 kts | 112° |
| 2026-04-23 02:24 | -15.86620 | -47.91991 | 3483 ft | 2 kts | 98° |
| 2026-04-23 02:25 | -15.86620 | -47.92004 | 3483 ft | 1 kts | 86° |
| 2026-04-23 02:25 | -15.86620 | -47.92008 | 3483 ft | 0 kts | 83° |
| 2026-04-23 02:25 | -15.86620 | -47.92007 | 3482 ft | 0 kts | 83° |
| 2026-04-23 02:27 | -15.86618 | -47.91983 | 3483 ft | 7 kts | 86° |
| 2026-04-23 02:27 | -15.86613 | -47.91900 | 3483 ft | 13 kts | 86° |
| 2026-04-23 02:27 | -15.86588 | -47.91819 | 3483 ft | 11 kts | 32° |
| 2026-04-23 02:28 | -15.86507 | -47.91821 | 3482 ft | 11 kts | 329° |
| 2026-04-23 02:28 | -15.86489 | -47.91899 | 3481 ft | 11 kts | 266° |
| 2026-04-23 02:28 | -15.86495 | -47.91982 | 3481 ft | 11 kts | 266° |
| 2026-04-23 02:28 | -15.86500 | -47.92063 | 3481 ft | 11 kts | 266° |
| 2026-04-23 02:29 | -15.86505 | -47.92145 | 3480 ft | 11 kts | 266° |
| 2026-04-23 02:29 | -15.86511 | -47.92226 | 3480 ft | 11 kts | 266° |
| 2026-04-23 02:29 | -15.86516 | -47.92308 | 3479 ft | 11 kts | 266° |
| 2026-04-23 02:29 | -15.86521 | -47.92393 | 3478 ft | 11 kts | 266° |
| 2026-04-23 02:30 | -15.86527 | -47.92479 | 3477 ft | 12 kts | 266° |
| 2026-04-23 02:30 | -15.86533 | -47.92570 | 3475 ft | 13 kts | 266° |
| 2026-04-23 02:30 | -15.86540 | -47.92668 | 3474 ft | 13 kts | 266° |
| 2026-04-23 02:30 | -15.86535 | -47.92765 | 3472 ft | 9 kts | 327° |
| 2026-04-23 02:31 | -15.86489 | -47.92765 | 3471 ft | 2 kts | 348° |
| 2026-04-23 02:31 | -15.86470 | -47.92770 | 3471 ft | 3 kts | 350° |
| 2026-04-23 02:31 | -15.86442 | -47.92772 | 3470 ft | 6 kts | 354° |
| 2026-04-23 02:31 | -15.86375 | -47.92752 | 3469 ft | 13 kts | 7° |
| 2026-04-23 02:32 | -15.86352 | -47.92742 | 3469 ft | 0 kts | 86° |
| 2026-04-23 02:32 | -15.86348 | -47.92684 | 3470 ft | 33 kts | 86° |
| 2026-04-23 02:32 | -15.86317 | -47.92192 | 3477 ft | 102 kts | 86° |
| 2026-04-23 02:33 | -15.86255 | -47.91239 | 3485 ft | 161 kts | 86° |
| 2026-04-23 02:33 | -15.86167 | -47.89908 | 3620 ft | 198 kts | 86° |
| 2026-04-23 02:33 | -15.86082 | -47.88524 | 4550 ft | 190 kts | 88° |
| 2026-04-23 02:33 | -15.86317 | -47.87204 | 5107 ft | 197 kts | 118° |
| 2026-04-23 02:34 | -15.87283 | -47.86155 | 5606 ft | 210 kts | 147° |
| 2026-04-23 02:34 | -15.88702 | -47.85604 | 6107 ft | 226 kts | 167° |
| 2026-04-23 02:34 | -15.90309 | -47.85438 | 6558 ft | 242 kts | 174° |
| 2026-04-23 02:34 | -15.92060 | -47.85354 | 7038 ft | 258 kts | 175° |
| 2026-04-23 02:35 | -15.93911 | -47.85258 | 7527 ft | 273 kts | 175° |
| 2026-04-23 02:35 | -15.95840 | -47.85143 | 8170 ft | 281 kts | 174° |
| 2026-04-23 02:35 | -15.97808 | -47.85018 | 8841 ft | 287 kts | 174° |
| 2026-04-23 02:35 | -15.99843 | -47.84886 | 9157 ft | 289 kts | 175° |
| 2026-04-23 02:36 | -16.01873 | -47.84920 | 9190 ft | 291 kts | 186° |
| 2026-04-23 02:36 | -16.03784 | -47.85574 | 9193 ft | 292 kts | 208° |
| 2026-04-23 02:36 | -16.05393 | -47.86895 | 9184 ft | 297 kts | 226° |
| 2026-04-23 02:36 | -16.06874 | -47.88463 | 9570 ft | 308 kts | 214° |
| 2026-04-23 02:37 | -16.08736 | -47.89500 | 10578 ft | 299 kts | 204° |
| 2026-04-23 02:37 | -16.10574 | -47.90660 | 10922 ft | 319 kts | 217° |
| 2026-04-23 02:37 | -16.12205 | -47.92351 | 11356 ft | 337 kts | 230° |
| 2026-04-23 02:37 | -16.13553 | -47.94405 | 11961 ft | 346 kts | 236° |
| 2026-04-23 02:38 | -16.14785 | -47.96553 | 12593 ft | 353 kts | 238° |
| 2026-04-23 02:38 | -16.16022 | -47.98768 | 13268 ft | 357 kts | 238° |
| 2026-04-23 02:38 | -16.17302 | -48.01025 | 13982 ft | 361 kts | 237° |
| 2026-04-23 02:38 | -16.18587 | -48.03247 | 14679 ft | 364 kts | 237° |
| 2026-04-23 02:39 | -16.19914 | -48.05506 | 15387 ft | 367 kts | 237° |
| 2026-04-23 02:39 | -16.21247 | -48.07755 | 15915 ft | 365 kts | 236° |
| 2026-04-23 02:39 | -16.22578 | -48.09991 | 16142 ft | 359 kts | 236° |
| 2026-04-23 02:39 | -16.23901 | -48.12208 | 16155 ft | 357 kts | 236° |
| 2026-04-23 02:40 | -16.25201 | -48.14385 | 16156 ft | 354 kts | 236° |
| 2026-04-23 02:40 | -16.26508 | -48.16577 | 16162 ft | 355 kts | 236° |
| 2026-04-23 02:40 | -16.27803 | -48.18749 | 16159 ft | 355 kts | 236° |
| 2026-04-23 02:40 | -16.29109 | -48.20943 | 16157 ft | 354 kts | 236° |
| 2026-04-23 02:41 | -16.30413 | -48.23134 | 16159 ft | 353 kts | 236° |
| 2026-04-23 02:41 | -16.31704 | -48.25303 | 16160 ft | 353 kts | 236° |
| 2026-04-23 02:41 | -16.33001 | -48.27484 | 16162 ft | 354 kts | 236° |
| 2026-04-23 02:41 | -16.34303 | -48.29672 | 16158 ft | 354 kts | 236° |
| 2026-04-23 02:42 | -16.35595 | -48.31847 | 16156 ft | 353 kts | 236° |
| 2026-04-23 02:42 | -16.36880 | -48.34011 | 16156 ft | 354 kts | 236° |
| 2026-04-23 02:42 | -16.38190 | -48.36216 | 16162 ft | 354 kts | 236° |
| 2026-04-23 02:42 | -16.39477 | -48.38382 | 16157 ft | 354 kts | 236° |
| 2026-04-23 02:43 | -16.40781 | -48.40579 | 16157 ft | 355 kts | 236° |
| 2026-04-23 02:43 | -16.42082 | -48.42771 | 16158 ft | 357 kts | 236° |
| 2026-04-23 02:43 | -16.43419 | -48.45021 | 16146 ft | 372 kts | 236° |
| 2026-04-23 02:43 | -16.44791 | -48.47330 | 15904 ft | 373 kts | 236° |
| 2026-04-23 02:44 | -16.46137 | -48.49601 | 15523 ft | 368 kts | 236° |
| 2026-04-23 02:44 | -16.47480 | -48.51870 | 15026 ft | 367 kts | 236° |
| 2026-04-23 02:44 | -16.48823 | -48.54135 | 14479 ft | 368 kts | 236° |
| 2026-04-23 02:44 | -16.50166 | -48.56404 | 13933 ft | 368 kts | 236° |
| 2026-04-23 02:45 | -16.51498 | -48.58655 | 13383 ft | 368 kts | 236° |
| 2026-04-23 02:45 | -16.52850 | -48.60938 | 12818 ft | 368 kts | 236° |
| 2026-04-23 02:45 | -16.54192 | -48.63219 | 12265 ft | 368 kts | 238° |
| 2026-04-23 02:45 | -16.55307 | -48.65618 | 11700 ft | 369 kts | 248° |
| 2026-04-23 02:46 | -16.56087 | -48.68184 | 11147 ft | 369 kts | 254° |
| 2026-04-23 02:46 | -16.56683 | -48.70758 | 10674 ft | 365 kts | 256° |
| 2026-04-23 02:46 | -16.57212 | -48.73328 | 10468 ft | 353 kts | 257° |
| 2026-04-23 02:46 | -16.57707 | -48.75753 | 10350 ft | 339 kts | 257° |
| 2026-04-23 02:47 | -16.58214 | -48.78145 | 10115 ft | 331 kts | 256° |
| 2026-04-23 02:47 | -16.58727 | -48.80463 | 9689 ft | 330 kts | 256° |
| 2026-04-23 02:47 | -16.59252 | -48.82764 | 9272 ft | 328 kts | 256° |
| 2026-04-23 02:47 | -16.59790 | -48.85081 | 8865 ft | 325 kts | 256° |
| 2026-04-23 02:48 | -16.60319 | -48.87345 | 8470 ft | 323 kts | 256° |
| 2026-04-23 02:48 | -16.60856 | -48.89639 | 8071 ft | 321 kts | 255° |
| 2026-04-23 02:48 | -16.61380 | -48.91870 | 7666 ft | 320 kts | 255° |
| 2026-04-23 02:48 | -16.61898 | -48.94088 | 7268 ft | 309 kts | 255° |
| 2026-04-23 02:49 | -16.62393 | -48.96211 | 7086 ft | 290 kts | 255° |
| 2026-04-23 02:49 | -16.62853 | -48.98185 | 7081 ft | 270 kts | 255° |
| 2026-04-23 02:49 | -16.63389 | -49.00019 | 7013 ft | 257 kts | 245° |
| 2026-04-23 02:49 | -16.64339 | -49.01519 | 6916 ft | 243 kts | 219° |
| 2026-04-23 02:50 | -16.65750 | -49.02479 | 6589 ft | 242 kts | 204° |
| 2026-04-23 02:50 | -16.67238 | -49.03244 | 6463 ft | 233 kts | 204° |
| 2026-04-23 02:50 | -16.68699 | -49.04035 | 6092 ft | 238 kts | 206° |
| 2026-04-23 02:50 | -16.70081 | -49.04990 | 5757 ft | 242 kts | 222° |
| 2026-04-23 02:51 | -16.70962 | -49.06470 | 5510 ft | 241 kts | 259° |
| 2026-04-23 02:51 | -16.70909 | -49.08180 | 5250 ft | 237 kts | 289° |
| 2026-04-23 02:51 | -16.70182 | -49.09699 | 4878 ft | 230 kts | 302° |
| 2026-04-23 02:51 | -16.69383 | -49.11074 | 4602 ft | 213 kts | 302° |
| 2026-04-23 02:52 | -16.68653 | -49.12355 | 4358 ft | 197 kts | 302° |
| 2026-04-23 02:52 | -16.67982 | -49.13549 | 4078 ft | 188 kts | 302° |
| 2026-04-23 02:52 | -16.67339 | -49.14693 | 3887 ft | 171 kts | 302° |
| 2026-04-23 02:52 | -16.66754 | -49.15737 | 3626 ft | 160 kts | 302° |
| 2026-04-23 02:53 | -16.66202 | -49.16721 | 3406 ft | 155 kts | 302° |
| 2026-04-23 02:53 | -16.65656 | -49.17681 | 3216 ft | 154 kts | 302° |
| 2026-04-23 02:53 | -16.65125 | -49.18646 | 3028 ft | 152 kts | 301° |
| 2026-04-23 02:53 | -16.64601 | -49.19589 | 2816 ft | 150 kts | 301° |
| 2026-04-23 02:54 | -16.64078 | -49.20524 | 2627 ft | 148 kts | 300° |
| 2026-04-23 02:54 | -16.63563 | -49.21448 | 2467 ft | 143 kts | 300° |
| 2026-04-23 02:54 | -16.63152 | -49.22181 | 2465 ft | 89 kts | 300° |
| 2026-04-23 02:54 | -16.62893 | -49.22646 | 2465 ft | 65 kts | 303° |
| 2026-04-23 02:55 | -16.62732 | -49.22930 | 2465 ft | 26 kts | 300° |
| 2026-04-23 02:55 | -16.62658 | -49.23071 | 2465 ft | 14 kts | 288° |
| 2026-04-23 02:55 | -16.62689 | -49.23129 | 2465 ft | 10 kts | 181° |
| 2026-04-23 02:55 | -16.62756 | -49.23112 | 2465 ft | 9 kts | 165° |
| 2026-04-23 02:56 | -16.62818 | -49.23096 | 2465 ft | 8 kts | 165° |
| 2026-04-23 02:56 | -16.62871 | -49.23070 | 2465 ft | 9 kts | 136° |
| 2026-04-23 02:56 | -16.62923 | -49.22986 | 2465 ft | 19 kts | 121° |
| 2026-04-23 02:56 | -16.63011 | -49.22827 | 2465 ft | 29 kts | 120° |
| 2026-04-23 02:57 | -16.63112 | -49.22643 | 2465 ft | 28 kts | 120° |
| 2026-04-23 02:57 | -16.63213 | -49.22469 | 2465 ft | 27 kts | 120° |
| 2026-04-23 02:57 | -16.63297 | -49.22319 | 2465 ft | 10 kts | 120° |
| 2026-04-23 02:57 | -16.63269 | -49.22265 | 2465 ft | 9 kts | 29° |
| 2026-04-23 02:58 | -16.63186 | -49.22216 | 2465 ft | 18 kts | 24° |
| 2026-04-23 02:58 | -16.63079 | -49.22312 | 2465 ft | 26 kts | 300° |
| 2026-04-23 02:58 | -16.62964 | -49.22501 | 2465 ft | 35 kts | 307° |
| 2026-04-23 02:58 | -16.62791 | -49.22640 | 2465 ft | 22 kts | 338° |
| 2026-04-23 02:59 | -16.62729 | -49.22606 | 2465 ft | 11 kts | 100° |
| 2026-04-23 02:59 | -16.62765 | -49.22535 | 2465 ft | 11 kts | 120° |
| 2026-04-23 02:59 | -16.62814 | -49.22447 | 2465 ft | 17 kts | 120° |
| 2026-04-23 02:59 | -16.62885 | -49.22320 | 2465 ft | 23 kts | 120° |
| 2026-04-23 03:00 | -16.62974 | -49.22155 | 2465 ft | 26 kts | 112° |
| 2026-04-23 03:00 | -16.62980 | -49.21969 | 2465 ft | 25 kts | 77° |
| 2026-04-23 03:00 | -16.62943 | -49.21792 | 2465 ft | 24 kts | 77° |
| 2026-04-23 03:00 | -16.62917 | -49.21666 | 2465 ft | 7 kts | 83° |
| 2026-04-23 03:01 | -16.62949 | -49.21621 | 2465 ft | 9 kts | 156° |
| 2026-04-23 03:01 | -16.62997 | -49.21584 | 2465 ft | 8 kts | 76° |
| 2026-04-23 03:01 | -16.62978 | -49.21538 | 2465 ft | 4 kts | 63° |
| 2026-04-23 03:01 | -16.62976 | -49.21534 | 2465 ft | 1 kts | 63° |
| 2026-04-23 03:02 | -16.62976 | -49.21533 | 2465 ft | 0 kts | 63° |